Star Mariella — V7KK3 — position and weather

sailwx.info

Track history (hours):
 
Tides and Currents Weather Stations Pressure Air Temp Water Temp Dewpoint Dewpoint Depression Visibility Wind Speed Wind Dir Waves Ship Positions

Star Mariella

Last reported at 2014-Oct-30 12:31 UTC. Time now 2014-Oct-31 12:03 UTC.
Position N 35°11' E 139°46'.

Length 229 m; draft 7.4 m.

Type: Ship. MMSI: 538002632.

Date/timePositionNaut miles runAvg speedWind from/ knotsBaromVisibWave heightAir tempDewpointWater temp
2014-Oct-30 12:31N 35°11' E 139°46'1111.3
2014-Oct-30 11:33N 35°21' E 139°42'1312.5
2014-Oct-30 10:33N 35°30' E 139°53'6 5.5
2014-Oct-30 09:31N 35°32' E 139°59'0 0.0
2014-Oct-30 07:28N 35°32' E 139°59'0 0.1
2014-Oct-30 06:10N 35°32' E 139°59'0 0.0
2014-Oct-30 00:31N 35°32' E 139°59'0 0.0
2014-Oct-29 23:22N 35°32' E 139°59'0 0.0
2014-Oct-29 22:25N 35°32' E 139°59'0 0.0
2014-Oct-29 21:22N 35°32' E 139°59'0 0.0
2014-Oct-29 20:22N 35°32' E 139°59'0 0.0
2014-Oct-29 19:13N 35°32' E 139°59'0 0.0
2014-Oct-29 18:04N 35°32' E 139°59'0 0.1
2014-Oct-29 17:22N 35°32' E 139°59'0 0.0
2014-Oct-29 16:22N 35°32' E 139°59'0 0.0
2014-Oct-29 15:04N 35°32' E 139°59'0 0.1
2014-Oct-29 13:31N 35°32' E 139°59'0 0.1
2014-Oct-29 11:10N 35°32' E 139°59'0 0.0
2014-Oct-29 06:22N 35°32' E 139°59'1 0.7
2014-Oct-29 05:33N 35°33' E 139°60'3 0.1
2014-Oct-27 04:14N 35°35' E 140°02'6 3.4
2014-Oct-27 02:33N 35°32' E 139°56'0 0.0
2014-Oct-27 01:33N 35°32' E 139°56'0 0.0
2014-Oct-26 23:32N 35°32' E 139°56'0 0.2
2014-Oct-26 22:31N 35°32' E 139°56'0 0.1
2014-Oct-26 21:33N 35°32' E 139°56'0 0.1
2014-Oct-26 20:33N 35°32' E 139°56'6 5.7
2014-Oct-26 19:33N 35°28' E 139°51'1211.9
2014-Oct-26 18:33N 35°17' E 139°45'10 9.8
2014-Oct-26 17:33N 35°07' E 139°45'9 8.3
2014-Oct-26 16:25N 34°58' E 139°41'  
Track history (hours):
 
Tides and Currents Weather Stations Pressure Air Temp Water Temp Dewpoint Dewpoint Depression Visibility Wind Speed Wind Dir Waves Ship Positions

Star Mariella

Last reported at 2014-Oct-30 12:31 UTC. Time now 2014-Oct-31 12:03 UTC.
Position N 35°11' E 139°46'.

Length 229 m; draft 7.4 m.

Type: Ship. MMSI: 538002632.

Date/timePositionNaut miles runAvg speedWind from/ knotsBaromVisibWave heightAir tempDewpointWater temp
2014-Oct-30 12:31N 35°11' E 139°46'1111.3
2014-Oct-30 11:33N 35°21' E 139°42'1312.5
2014-Oct-30 10:33N 35°30' E 139°53'6 5.5
2014-Oct-30 09:31N 35°32' E 139°59'0 0.0
2014-Oct-30 07:28N 35°32' E 139°59'0 0.1
2014-Oct-30 06:10N 35°32' E 139°59'0 0.0
2014-Oct-30 00:31N 35°32' E 139°59'0 0.0
2014-Oct-29 23:22N 35°32' E 139°59'0 0.0
2014-Oct-29 22:25N 35°32' E 139°59'0 0.0
2014-Oct-29 21:22N 35°32' E 139°59'0 0.0
2014-Oct-29 20:22N 35°32' E 139°59'0 0.0
2014-Oct-29 19:13N 35°32' E 139°59'0 0.0
2014-Oct-29 18:04N 35°32' E 139°59'0 0.1
2014-Oct-29 17:22N 35°32' E 139°59'0 0.0
2014-Oct-29 16:22N 35°32' E 139°59'0 0.0
2014-Oct-29 15:04N 35°32' E 139°59'0 0.1
2014-Oct-29 13:31N 35°32' E 139°59'0 0.1
2014-Oct-29 11:10N 35°32' E 139°59'0 0.0
2014-Oct-29 06:22N 35°32' E 139°59'1 0.7
2014-Oct-29 05:33N 35°33' E 139°60'3 0.1
2014-Oct-27 04:14N 35°35' E 140°02'6 3.4
2014-Oct-27 02:33N 35°32' E 139°56'0 0.0
2014-Oct-27 01:33N 35°32' E 139°56'0 0.0
2014-Oct-26 23:32N 35°32' E 139°56'0 0.2
2014-Oct-26 22:31N 35°32' E 139°56'0 0.1
2014-Oct-26 21:33N 35°32' E 139°56'0 0.1
2014-Oct-26 20:33N 35°32' E 139°56'6 5.7
2014-Oct-26 19:33N 35°28' E 139°51'1211.9
2014-Oct-26 18:33N 35°17' E 139°45'10 9.8
2014-Oct-26 17:33N 35°07' E 139°45'9 8.3
2014-Oct-26 16:25N 34°58' E 139°41'  

Dump ship's entire track history